sensor_id;sensor_type;location;lat;lon;timestamp;P1;durP1;ratioP1;P2;durP2;ratioP2
26686;SDS011;14298;50.900;4.648;2023-07-22T00:00:37;3.27;;;2.13;;
26686;SDS011;14298;50.900;4.648;2023-07-22T00:03:05;2.83;;;2.40;;
26686;SDS011;14298;50.900;4.648;2023-07-22T00:05:33;3.03;;;2.13;;
26686;SDS011;14298;50.900;4.648;2023-07-22T00:08:01;6.87;;;2.60;;
26686;SDS011;14298;50.900;4.648;2023-07-22T00:10:30;9.60;;;2.30;;
26686;SDS011;14298;50.900;4.648;2023-07-22T00:12:58;3.50;;;2.40;;
26686;SDS011;14298;50.900;4.648;2023-07-22T00:15:26;3.40;;;2.37;;
26686;SDS011;14298;50.900;4.648;2023-07-22T00:17:54;4.60;;;2.67;;
26686;SDS011;14298;50.900;4.648;2023-07-22T00:20:23;2.77;;;2.60;;
26686;SDS011;14298;50.900;4.648;2023-07-22T00:22:52;3.10;;;2.30;;
26686;SDS011;14298;50.900;4.648;2023-07-22T00:25:20;2.90;;;2.63;;
26686;SDS011;14298;50.900;4.648;2023-07-22T00:27:49;2.40;;;2.20;;
26686;SDS011;14298;50.900;4.648;2023-07-22T00:30:17;3.73;;;2.40;;
26686;SDS011;14298;50.900;4.648;2023-07-22T00:32:45;7.03;;;3.07;;
26686;SDS011;14298;50.900;4.648;2023-07-22T00:35:13;3.03;;;2.53;;
26686;SDS011;14298;50.900;4.648;2023-07-22T00:37:41;2.57;;;2.37;;
26686;SDS011;14298;50.900;4.648;2023-07-22T00:40:09;4.97;;;2.97;;
26686;SDS011;14298;50.900;4.648;2023-07-22T00:42:39;2.83;;;2.57;;
26686;SDS011;14298;50.900;4.648;2023-07-22T00:45:07;1.90;;;1.77;;
26686;SDS011;14298;50.900;4.648;2023-07-22T00:47:36;7.20;;;3.13;;
26686;SDS011;14298;50.900;4.648;2023-07-22T00:50:04;2.33;;;1.83;;
26686;SDS011;14298;50.900;4.648;2023-07-22T00:52:34;6.57;;;2.33;;
26686;SDS011;14298;50.900;4.648;2023-07-22T00:55:02;5.83;;;2.03;;
26686;SDS011;14298;50.900;4.648;2023-07-22T00:57:30;6.10;;;2.27;;
26686;SDS011;14298;50.900;4.648;2023-07-22T00:59:59;4.97;;;2.07;;
26686;SDS011;14298;50.900;4.648;2023-07-22T01:02:27;4.10;;;2.90;;
26686;SDS011;14298;50.900;4.648;2023-07-22T01:04:56;6.13;;;3.67;;
26686;SDS011;14298;50.900;4.648;2023-07-22T01:07:24;2.67;;;2.10;;
26686;SDS011;14298;50.900;4.648;2023-07-22T01:09:55;2.87;;;2.17;;
26686;SDS011;14298;50.900;4.648;2023-07-22T01:12:22;2.43;;;2.23;;
26686;SDS011;14298;50.900;4.648;2023-07-22T01:14:50;3.17;;;2.57;;
26686;SDS011;14298;50.900;4.648;2023-07-22T01:17:19;12.67;;;2.37;;
26686;SDS011;14298;50.900;4.648;2023-07-22T01:19:47;2.77;;;2.57;;
26686;SDS011;14298;50.900;4.648;2023-07-22T01:22:15;2.47;;;2.17;;
26686;SDS011;14298;50.900;4.648;2023-07-22T01:24:44;7.27;;;3.13;;
26686;SDS011;14298;50.900;4.648;2023-07-22T01:27:13;3.00;;;2.33;;
26686;SDS011;14298;50.900;4.648;2023-07-22T01:29:41;2.70;;;1.80;;
26686;SDS011;14298;50.900;4.648;2023-07-22T01:32:09;3.93;;;3.03;;
26686;SDS011;14298;50.900;4.648;2023-07-22T01:34:37;6.73;;;3.47;;
26686;SDS011;14298;50.900;4.648;2023-07-22T01:37:06;3.93;;;2.23;;
26686;SDS011;14298;50.900;4.648;2023-07-22T01:39:34;3.83;;;3.07;;
26686;SDS011;14298;50.900;4.648;2023-07-22T01:42:02;5.70;;;2.80;;
26686;SDS011;14298;50.900;4.648;2023-07-22T01:44:30;3.53;;;2.87;;
26686;SDS011;14298;50.900;4.648;2023-07-22T01:47:01;3.63;;;2.47;;
26686;SDS011;14298;50.900;4.648;2023-07-22T01:49:29;2.57;;;1.90;;
26686;SDS011;14298;50.900;4.648;2023-07-22T01:51:57;3.03;;;2.33;;
26686;SDS011;14298;50.900;4.648;2023-07-22T01:54:25;8.63;;;2.83;;
26686;SDS011;14298;50.900;4.648;2023-07-22T01:56:53;14.10;;;3.20;;
26686;SDS011;14298;50.900;4.648;2023-07-22T01:59:22;7.83;;;3.87;;
26686;SDS011;14298;50.900;4.648;2023-07-22T02:01:50;3.07;;;2.13;;
26686;SDS011;14298;50.900;4.648;2023-07-22T02:04:18;3.57;;;2.13;;
26686;SDS011;14298;50.900;4.648;2023-07-22T02:06:46;4.40;;;2.47;;
26686;SDS011;14298;50.900;4.648;2023-07-22T02:09:15;6.10;;;2.80;;
26686;SDS011;14298;50.900;4.648;2023-07-22T02:11:43;2.47;;;1.57;;
26686;SDS011;14298;50.900;4.648;2023-07-22T02:14:11;2.43;;;1.93;;
26686;SDS011;14298;50.900;4.648;2023-07-22T02:16:39;2.63;;;2.10;;
26686;SDS011;14298;50.900;4.648;2023-07-22T02:19:07;2.00;;;1.90;;
26686;SDS011;14298;50.900;4.648;2023-07-22T02:21:35;4.03;;;2.57;;
26686;SDS011;14298;50.900;4.648;2023-07-22T02:24:04;2.80;;;2.57;;
26686;SDS011;14298;50.900;4.648;2023-07-22T02:26:32;4.83;;;3.23;;
26686;SDS011;14298;50.900;4.648;2023-07-22T02:29:00;2.90;;;2.53;;
26686;SDS011;14298;50.900;4.648;2023-07-22T02:31:28;3.67;;;2.63;;
26686;SDS011;14298;50.900;4.648;2023-07-22T02:33:56;2.57;;;2.33;;
26686;SDS011;14298;50.900;4.648;2023-07-22T02:36:24;3.80;;;3.17;;
26686;SDS011;14298;50.900;4.648;2023-07-22T02:38:52;4.43;;;2.77;;
26686;SDS011;14298;50.900;4.648;2023-07-22T02:41:20;2.17;;;1.90;;
26686;SDS011;14298;50.900;4.648;2023-07-22T02:43:48;7.10;;;2.50;;
26686;SDS011;14298;50.900;4.648;2023-07-22T02:46:16;3.37;;;2.97;;
26686;SDS011;14298;50.900;4.648;2023-07-22T02:48:45;2.77;;;2.20;;
26686;SDS011;14298;50.900;4.648;2023-07-22T02:51:13;2.57;;;2.37;;
26686;SDS011;14298;50.900;4.648;2023-07-22T02:53:40;3.93;;;3.50;;
26686;SDS011;14298;50.900;4.648;2023-07-22T02:56:09;2.60;;;2.40;;
26686;SDS011;14298;50.900;4.648;2023-07-22T02:58:38;4.47;;;3.07;;
26686;SDS011;14298;50.900;4.648;2023-07-22T03:01:06;5.10;;;2.67;;
26686;SDS011;14298;50.900;4.648;2023-07-22T03:03:36;5.63;;;3.23;;
26686;SDS011;14298;50.900;4.648;2023-07-22T03:06:04;7.07;;;3.00;;
26686;SDS011;14298;50.900;4.648;2023-07-22T03:08:32;4.93;;;3.37;;
26686;SDS011;14298;50.900;4.648;2023-07-22T03:11:00;3.27;;;2.83;;
26686;SDS011;14298;50.900;4.648;2023-07-22T03:13:28;5.63;;;2.90;;
26686;SDS011;14298;50.900;4.648;2023-07-22T03:15:57;3.93;;;3.10;;
26686;SDS011;14298;50.900;4.648;2023-07-22T03:18:25;5.63;;;3.20;;
26686;SDS011;14298;50.900;4.648;2023-07-22T03:20:53;3.07;;;2.77;;
26686;SDS011;14298;50.900;4.648;2023-07-22T03:23:21;3.53;;;2.87;;
26686;SDS011;14298;50.900;4.648;2023-07-22T03:25:49;5.17;;;3.20;;
26686;SDS011;14298;50.900;4.648;2023-07-22T03:28:18;6.87;;;4.27;;
26686;SDS011;14298;50.900;4.648;2023-07-22T03:30:46;3.53;;;3.10;;
26686;SDS011;14298;50.900;4.648;2023-07-22T03:33:14;3.60;;;2.70;;
26686;SDS011;14298;50.900;4.648;2023-07-22T03:35:42;8.60;;;3.93;;
26686;SDS011;14298;50.900;4.648;2023-07-22T03:38:10;3.87;;;2.80;;
26686;SDS011;14298;50.900;4.648;2023-07-22T03:40:38;5.37;;;2.97;;
26686;SDS011;14298;50.900;4.648;2023-07-22T03:43:06;4.20;;;3.50;;
26686;SDS011;14298;50.900;4.648;2023-07-22T03:45:34;4.50;;;3.07;;
26686;SDS011;14298;50.900;4.648;2023-07-22T03:48:02;4.30;;;3.73;;
26686;SDS011;14298;50.900;4.648;2023-07-22T03:50:30;5.37;;;3.73;;
26686;SDS011;14298;50.900;4.648;2023-07-22T03:52:58;4.90;;;4.10;;
26686;SDS011;14298;50.900;4.648;2023-07-22T03:55:26;3.33;;;2.50;;
26686;SDS011;14298;50.900;4.648;2023-07-22T03:57:54;6.33;;;3.33;;
26686;SDS011;14298;50.900;4.648;2023-07-22T04:00:22;6.03;;;3.47;;
26686;SDS011;14298;50.900;4.648;2023-07-22T04:02:50;5.57;;;3.40;;
26686;SDS011;14298;50.900;4.648;2023-07-22T04:05:18;4.67;;;3.50;;
26686;SDS011;14298;50.900;4.648;2023-07-22T04:07:46;5.47;;;3.90;;
26686;SDS011;14298;50.900;4.648;2023-07-22T04:10:14;5.77;;;3.90;;
26686;SDS011;14298;50.900;4.648;2023-07-22T04:12:42;6.40;;;3.33;;
26686;SDS011;14298;50.900;4.648;2023-07-22T04:15:10;7.93;;;4.20;;
26686;SDS011;14298;50.900;4.648;2023-07-22T04:17:39;7.57;;;3.10;;
26686;SDS011;14298;50.900;4.648;2023-07-22T04:20:08;8.60;;;3.70;;
26686;SDS011;14298;50.900;4.648;2023-07-22T04:22:36;8.57;;;3.43;;
26686;SDS011;14298;50.900;4.648;2023-07-22T04:25:04;4.90;;;3.87;;
26686;SDS011;14298;50.900;4.648;2023-07-22T04:27:32;4.33;;;3.83;;
26686;SDS011;14298;50.900;4.648;2023-07-22T04:30:01;6.53;;;4.00;;
26686;SDS011;14298;50.900;4.648;2023-07-22T04:32:29;5.00;;;4.40;;
26686;SDS011;14298;50.900;4.648;2023-07-22T04:34:57;5.03;;;3.83;;
26686;SDS011;14298;50.900;4.648;2023-07-22T04:37:25;5.70;;;3.40;;
26686;SDS011;14298;50.900;4.648;2023-07-22T04:39:54;6.63;;;3.63;;
26686;SDS011;14298;50.900;4.648;2023-07-22T04:42:22;3.43;;;2.87;;
26686;SDS011;14298;50.900;4.648;2023-07-22T04:44:50;5.83;;;3.37;;
26686;SDS011;14298;50.900;4.648;2023-07-22T04:47:18;4.80;;;1.93;;
26686;SDS011;14298;50.900;4.648;2023-07-22T04:49:46;8.70;;;3.90;;
26686;SDS011;14298;50.900;4.648;2023-07-22T04:52:14;3.57;;;3.07;;
26686;SDS011;14298;50.900;4.648;2023-07-22T04:54:42;5.77;;;3.97;;
26686;SDS011;14298;50.900;4.648;2023-07-22T04:57:10;2.83;;;2.60;;
26686;SDS011;14298;50.900;4.648;2023-07-22T04:59:38;5.43;;;3.73;;
26686;SDS011;14298;50.900;4.648;2023-07-22T05:02:06;4.30;;;3.10;;
26686;SDS011;14298;50.900;4.648;2023-07-22T05:04:34;5.23;;;3.63;;
26686;SDS011;14298;50.900;4.648;2023-07-22T05:07:02;2.53;;;2.33;;
26686;SDS011;14298;50.900;4.648;2023-07-22T05:09:30;3.13;;;2.87;;
26686;SDS011;14298;50.900;4.648;2023-07-22T05:11:58;7.10;;;2.83;;
26686;SDS011;14298;50.900;4.648;2023-07-22T05:14:26;4.13;;;3.47;;
26686;SDS011;14298;50.900;4.648;2023-07-22T05:16:54;5.03;;;2.77;;
26686;SDS011;14298;50.900;4.648;2023-07-22T05:19:22;8.37;;;3.33;;
26686;SDS011;14298;50.900;4.648;2023-07-22T05:21:50;4.03;;;3.23;;
26686;SDS011;14298;50.900;4.648;2023-07-22T05:24:18;6.93;;;3.43;;
26686;SDS011;14298;50.900;4.648;2023-07-22T05:26:48;4.20;;;3.27;;
26686;SDS011;14298;50.900;4.648;2023-07-22T05:29:15;6.93;;;4.20;;
26686;SDS011;14298;50.900;4.648;2023-07-22T05:31:43;3.30;;;3.00;;
26686;SDS011;14298;50.900;4.648;2023-07-22T05:34:12;3.10;;;2.57;;
26686;SDS011;14298;50.900;4.648;2023-07-22T05:36:40;3.47;;;3.00;;
26686;SDS011;14298;50.900;4.648;2023-07-22T05:39:09;11.17;;;3.40;;
26686;SDS011;14298;50.900;4.648;2023-07-22T05:41:37;4.23;;;2.60;;
26686;SDS011;14298;50.900;4.648;2023-07-22T05:44:05;4.10;;;3.40;;
26686;SDS011;14298;50.900;4.648;2023-07-22T05:46:33;6.37;;;3.47;;
26686;SDS011;14298;50.900;4.648;2023-07-22T05:49:01;6.23;;;3.50;;
26686;SDS011;14298;50.900;4.648;2023-07-22T05:51:29;5.23;;;3.57;;
26686;SDS011;14298;50.900;4.648;2023-07-22T05:53:57;3.23;;;2.53;;
26686;SDS011;14298;50.900;4.648;2023-07-22T05:56:26;4.63;;;3.33;;
26686;SDS011;14298;50.900;4.648;2023-07-22T05:58:54;3.50;;;2.17;;
26686;SDS011;14298;50.900;4.648;2023-07-22T06:01:23;3.60;;;2.23;;
26686;SDS011;14298;50.900;4.648;2023-07-22T06:03:51;4.73;;;3.27;;
26686;SDS011;14298;50.900;4.648;2023-07-22T06:06:20;4.97;;;2.63;;
26686;SDS011;14298;50.900;4.648;2023-07-22T06:08:48;3.63;;;2.50;;
26686;SDS011;14298;50.900;4.648;2023-07-22T06:11:16;1.53;;;1.43;;
26686;SDS011;14298;50.900;4.648;2023-07-22T06:13:44;4.63;;;2.13;;
26686;SDS011;14298;50.900;4.648;2023-07-22T06:16:12;3.77;;;3.07;;
26686;SDS011;14298;50.900;4.648;2023-07-22T06:18:40;2.73;;;2.37;;
26686;SDS011;14298;50.900;4.648;2023-07-22T06:21:08;6.83;;;2.93;;
26686;SDS011;14298;50.900;4.648;2023-07-22T06:23:37;2.67;;;1.87;;
26686;SDS011;14298;50.900;4.648;2023-07-22T06:26:05;4.33;;;1.90;;
26686;SDS011;14298;50.900;4.648;2023-07-22T06:28:34;1.73;;;1.63;;
26686;SDS011;14298;50.900;4.648;2023-07-22T06:31:02;3.37;;;1.93;;
26686;SDS011;14298;50.900;4.648;2023-07-22T06:33:30;3.20;;;1.50;;
26686;SDS011;14298;50.900;4.648;2023-07-22T06:35:58;2.70;;;1.27;;
26686;SDS011;14298;50.900;4.648;2023-07-22T06:38:26;2.57;;;1.63;;
26686;SDS011;14298;50.900;4.648;2023-07-22T06:40:55;1.93;;;1.40;;
26686;SDS011;14298;50.900;4.648;2023-07-22T06:43:24;2.87;;;1.73;;
26686;SDS011;14298;50.900;4.648;2023-07-22T06:45:52;2.47;;;2.00;;
26686;SDS011;14298;50.900;4.648;2023-07-22T06:48:20;1.73;;;1.40;;
26686;SDS011;14298;50.900;4.648;2023-07-22T06:50:49;1.40;;;1.30;;
26686;SDS011;14298;50.900;4.648;2023-07-22T06:53:17;1.30;;;1.20;;
26686;SDS011;14298;50.900;4.648;2023-07-22T06:55:53;5.53;;;0.97;;
26686;SDS011;14298;50.900;4.648;2023-07-22T06:58:19;1.83;;;1.37;;
26686;SDS011;14298;50.900;4.648;2023-07-22T07:00:47;1.83;;;1.70;;
26686;SDS011;14298;50.900;4.648;2023-07-22T07:03:15;1.50;;;1.00;;
26686;SDS011;14298;50.900;4.648;2023-07-22T07:05:43;2.03;;;1.63;;
26686;SDS011;14298;50.900;4.648;2023-07-22T07:08:11;3.30;;;2.00;;
26686;SDS011;14298;50.900;4.648;2023-07-22T07:10:39;3.40;;;1.90;;
26686;SDS011;14298;50.900;4.648;2023-07-22T07:13:07;1.57;;;1.30;;
26686;SDS011;14298;50.900;4.648;2023-07-22T07:15:36;2.03;;;1.43;;
26686;SDS011;14298;50.900;4.648;2023-07-22T07:18:04;4.67;;;1.37;;
26686;SDS011;14298;50.900;4.648;2023-07-22T07:20:32;1.00;;;1.00;;
26686;SDS011;14298;50.900;4.648;2023-07-22T07:23:00;1.80;;;1.30;;
26686;SDS011;14298;50.900;4.648;2023-07-22T07:25:28;2.90;;;2.27;;
26686;SDS011;14298;50.900;4.648;2023-07-22T07:27:56;4.10;;;1.97;;
26686;SDS011;14298;50.900;4.648;2023-07-22T07:30:24;7.27;;;2.13;;
26686;SDS011;14298;50.900;4.648;2023-07-22T07:32:52;2.50;;;1.73;;
26686;SDS011;14298;50.900;4.648;2023-07-22T07:35:20;2.30;;;1.60;;
26686;SDS011;14298;50.900;4.648;2023-07-22T07:37:48;2.10;;;1.17;;
26686;SDS011;14298;50.900;4.648;2023-07-22T07:40:16;1.93;;;1.40;;
26686;SDS011;14298;50.900;4.648;2023-07-22T07:42:43;7.70;;;1.40;;
26686;SDS011;14298;50.900;4.648;2023-07-22T07:45:12;1.83;;;1.70;;
26686;SDS011;14298;50.900;4.648;2023-07-22T07:47:40;1.53;;;1.43;;
26686;SDS011;14298;50.900;4.648;2023-07-22T07:50:08;4.40;;;1.10;;
26686;SDS011;14298;50.900;4.648;2023-07-22T07:52:36;2.80;;;1.30;;
26686;SDS011;14298;50.900;4.648;2023-07-22T07:55:05;1.50;;;0.70;;
26686;SDS011;14298;50.900;4.648;2023-07-22T07:57:33;1.53;;;1.23;;
26686;SDS011;14298;50.900;4.648;2023-07-22T08:00:01;10.27;;;1.00;;
26686;SDS011;14298;50.900;4.648;2023-07-22T08:02:30;1.70;;;1.20;;
26686;SDS011;14298;50.900;4.648;2023-07-22T08:04:58;4.07;;;1.10;;
26686;SDS011;14298;50.900;4.648;2023-07-22T08:07:26;2.73;;;0.80;;
26686;SDS011;14298;50.900;4.648;2023-07-22T08:09:54;0.80;;;0.80;;
26686;SDS011;14298;50.900;4.648;2023-07-22T08:12:23;1.37;;;1.27;;
26686;SDS011;14298;50.900;4.648;2023-07-22T08:14:52;3.00;;;1.70;;
26686;SDS011;14298;50.900;4.648;2023-07-22T08:17:20;2.03;;;0.97;;
26686;SDS011;14298;50.900;4.648;2023-07-22T08:19:48;4.00;;;1.43;;
26686;SDS011;14298;50.900;4.648;2023-07-22T08:22:16;2.60;;;1.10;;
26686;SDS011;14298;50.900;4.648;2023-07-22T08:24:45;1.47;;;1.20;;
26686;SDS011;14298;50.900;4.648;2023-07-22T08:27:13;0.77;;;0.77;;
26686;SDS011;14298;50.900;4.648;2023-07-22T08:29:41;1.77;;;1.00;;
26686;SDS011;14298;50.900;4.648;2023-07-22T08:32:09;0.77;;;0.77;;
26686;SDS011;14298;50.900;4.648;2023-07-22T08:34:37;0.60;;;0.50;;
26686;SDS011;14298;50.900;4.648;2023-07-22T08:37:05;1.27;;;1.17;;
26686;SDS011;14298;50.900;4.648;2023-07-22T08:39:33;1.13;;;0.80;;
26686;SDS011;14298;50.900;4.648;2023-07-22T08:42:01;0.77;;;0.77;;
26686;SDS011;14298;50.900;4.648;2023-07-22T08:44:32;1.37;;;1.17;;
26686;SDS011;14298;50.900;4.648;2023-07-22T08:47:03;2.53;;;0.77;;
26686;SDS011;14298;50.900;4.648;2023-07-22T08:49:32;1.20;;;0.73;;
26686;SDS011;14298;50.900;4.648;2023-07-22T08:52:00;3.03;;;1.07;;
26686;SDS011;14298;50.900;4.648;2023-07-22T08:54:28;1.17;;;1.00;;
26686;SDS011;14298;50.900;4.648;2023-07-22T08:56:56;1.67;;;0.93;;
26686;SDS011;14298;50.900;4.648;2023-07-22T08:59:24;0.53;;;0.53;;
26686;SDS011;14298;50.900;4.648;2023-07-22T09:01:52;0.63;;;0.50;;
26686;SDS011;14298;50.900;4.648;2023-07-22T09:04:22;0.87;;;0.67;;
26686;SDS011;14298;50.900;4.648;2023-07-22T09:06:50;1.03;;;0.87;;
26686;SDS011;14298;50.900;4.648;2023-07-22T09:09:18;1.30;;;0.60;;
26686;SDS011;14298;50.900;4.648;2023-07-22T09:11:47;1.90;;;0.67;;
26686;SDS011;14298;50.900;4.648;2023-07-22T09:14:15;0.77;;;0.67;;
26686;SDS011;14298;50.900;4.648;2023-07-22T09:16:44;0.97;;;0.80;;
26686;SDS011;14298;50.900;4.648;2023-07-22T09:19:14;0.60;;;0.60;;
26686;SDS011;14298;50.900;4.648;2023-07-22T09:21:42;0.83;;;0.70;;
26686;SDS011;14298;50.900;4.648;2023-07-22T09:24:20;1.03;;;0.70;;
26686;SDS011;14298;50.900;4.648;2023-07-22T09:26:48;0.57;;;0.57;;
26686;SDS011;14298;50.900;4.648;2023-07-22T09:29:16;2.53;;;1.20;;
26686;SDS011;14298;50.900;4.648;2023-07-22T09:31:48;0.77;;;0.77;;
26686;SDS011;14298;50.900;4.648;2023-07-22T09:34:17;0.63;;;0.63;;
26686;SDS011;14298;50.900;4.648;2023-07-22T09:36:58;0.60;;;0.60;;
26686;SDS011;14298;50.900;4.648;2023-07-22T09:39:30;3.10;;;1.13;;
26686;SDS011;14298;50.900;4.648;2023-07-22T09:41:58;2.87;;;0.40;;
26686;SDS011;14298;50.900;4.648;2023-07-22T09:44:29;0.70;;;0.70;;
26686;SDS011;14298;50.900;4.648;2023-07-22T09:46:58;0.67;;;0.60;;
26686;SDS011;14298;50.900;4.648;2023-07-22T09:49:26;0.30;;;0.30;;
26686;SDS011;14298;50.900;4.648;2023-07-22T09:51:54;0.40;;;0.40;;
26686;SDS011;14298;50.900;4.648;2023-07-22T09:54:22;0.43;;;0.43;;
26686;SDS011;14298;50.900;4.648;2023-07-22T09:56:50;2.90;;;0.80;;
26686;SDS011;14298;50.900;4.648;2023-07-22T09:59:18;1.90;;;0.70;;
26686;SDS011;14298;50.900;4.648;2023-07-22T10:01:50;0.53;;;0.53;;
26686;SDS011;14298;50.900;4.648;2023-07-22T10:04:18;0.90;;;0.60;;
26686;SDS011;14298;50.900;4.648;2023-07-22T10:06:48;0.70;;;0.70;;
26686;SDS011;14298;50.900;4.648;2023-07-22T10:09:16;0.83;;;0.63;;
26686;SDS011;14298;50.900;4.648;2023-07-22T10:11:45;0.97;;;0.77;;
26686;SDS011;14298;50.900;4.648;2023-07-22T10:14:13;1.50;;;0.90;;
26686;SDS011;14298;50.900;4.648;2023-07-22T10:16:41;2.30;;;0.80;;
26686;SDS011;14298;50.900;4.648;2023-07-22T10:19:10;0.50;;;0.50;;
26686;SDS011;14298;50.900;4.648;2023-07-22T10:21:39;0.63;;;0.63;;
26686;SDS011;14298;50.900;4.648;2023-07-22T10:24:07;3.17;;;1.00;;
26686;SDS011;14298;50.900;4.648;2023-07-22T10:26:35;5.60;;;0.93;;
26686;SDS011;14298;50.900;4.648;2023-07-22T10:29:03;1.30;;;0.93;;
26686;SDS011;14298;50.900;4.648;2023-07-22T10:31:31;1.10;;;0.67;;
26686;SDS011;14298;50.900;4.648;2023-07-22T10:34:00;8.30;;;0.93;;
26686;SDS011;14298;50.900;4.648;2023-07-22T10:36:29;0.77;;;0.60;;
26686;SDS011;14298;50.900;4.648;2023-07-22T10:38:58;0.73;;;0.53;;
26686;SDS011;14298;50.900;4.648;2023-07-22T10:41:26;0.60;;;0.60;;
26686;SDS011;14298;50.900;4.648;2023-07-22T10:43:55;0.50;;;0.50;;
26686;SDS011;14298;50.900;4.648;2023-07-22T10:46:38;1.10;;;0.80;;
26686;SDS011;14298;50.900;4.648;2023-07-22T10:49:15;1.10;;;0.97;;
26686;SDS011;14298;50.900;4.648;2023-07-22T10:51:50;1.60;;;0.40;;
26686;SDS011;14298;50.900;4.648;2023-07-22T10:54:32;1.02;;;0.60;;
26686;SDS011;14298;50.900;4.648;2023-07-22T10:57:22;0.30;;;0.30;;
26686;SDS011;14298;50.900;4.648;2023-07-22T10:59:34;0.60;;;0.43;;
26686;SDS011;14298;50.900;4.648;2023-07-22T11:02:03;1.07;;;0.67;;
26686;SDS011;14298;50.900;4.648;2023-07-22T11:04:32;0.20;;;0.20;;
26686;SDS011;14298;50.900;4.648;2023-07-22T11:07:05;0.20;;;0.20;;
26686;SDS011;14298;50.900;4.648;2023-07-22T11:09:34;0.40;;;0.40;;
26686;SDS011;14298;50.900;4.648;2023-07-22T11:12:12;2.92;;;0.33;;
26686;SDS011;14298;50.900;4.648;2023-07-22T11:14:45;0.50;;;0.40;;
26686;SDS011;14298;50.900;4.648;2023-07-22T11:17:13;0.20;;;0.20;;
26686;SDS011;14298;50.900;4.648;2023-07-22T11:19:42;4.17;;;0.80;;
26686;SDS011;14298;50.900;4.648;2023-07-22T11:22:10;1.50;;;0.30;;
26686;SDS011;14298;50.900;4.648;2023-07-22T11:24:38;0.30;;;0.30;;
26686;SDS011;14298;50.900;4.648;2023-07-22T11:27:07;0.50;;;0.50;;
26686;SDS011;14298;50.900;4.648;2023-07-22T11:29:38;1.23;;;0.70;;
26686;SDS011;14298;50.900;4.648;2023-07-22T11:32:14;0.50;;;0.50;;
26686;SDS011;14298;50.900;4.648;2023-07-22T11:34:37;0.90;;;0.80;;
26686;SDS011;14298;50.900;4.648;2023-07-22T11:37:07;0.70;;;0.62;;
26686;SDS011;14298;50.900;4.648;2023-07-22T11:39:35;0.33;;;0.33;;
26686;SDS011;14298;50.900;4.648;2023-07-22T11:42:03;0.50;;;0.50;;
26686;SDS011;14298;50.900;4.648;2023-07-22T11:44:32;0.83;;;0.77;;
26686;SDS011;14298;50.900;4.648;2023-07-22T11:49:34;0.57;;;0.40;;
26686;SDS011;14298;50.900;4.648;2023-07-22T11:52:07;0.93;;;0.60;;
26686;SDS011;14298;50.900;4.648;2023-07-22T11:54:37;0.43;;;0.33;;
26686;SDS011;14298;50.900;4.648;2023-07-22T11:57:16;0.30;;;0.20;;
26686;SDS011;14298;50.900;4.648;2023-07-22T11:59:47;1.02;;;0.60;;
26686;SDS011;14298;50.900;4.648;2023-07-22T12:02:18;1.50;;;0.78;;
26686;SDS011;14298;50.900;4.648;2023-07-22T12:04:54;2.15;;;0.68;;
26686;SDS011;14298;50.900;4.648;2023-07-22T12:07:27;0.53;;;0.40;;
26686;SDS011;14298;50.900;4.648;2023-07-22T12:09:51;1.13;;;0.73;;
26686;SDS011;14298;50.900;4.648;2023-07-22T12:12:20;1.10;;;0.78;;
26686;SDS011;14298;50.900;4.648;2023-07-22T12:14:48;0.57;;;0.57;;
26686;SDS011;14298;50.900;4.648;2023-07-22T12:17:16;1.03;;;0.73;;
26686;SDS011;14298;50.900;4.648;2023-07-22T12:19:53;1.30;;;1.07;;
26686;SDS011;14298;50.900;4.648;2023-07-22T12:22:21;2.07;;;0.83;;
26686;SDS011;14298;50.900;4.648;2023-07-22T12:24:49;0.23;;;0.23;;
26686;SDS011;14298;50.900;4.648;2023-07-22T12:27:17;0.50;;;0.50;;
26686;SDS011;14298;50.900;4.648;2023-07-22T12:29:45;0.60;;;0.53;;
26686;SDS011;14298;50.900;4.648;2023-07-22T12:32:13;3.60;;;0.83;;
26686;SDS011;14298;50.900;4.648;2023-07-22T12:34:41;0.40;;;0.40;;
26686;SDS011;14298;50.900;4.648;2023-07-22T12:37:09;1.13;;;1.03;;
26686;SDS011;14298;50.900;4.648;2023-07-22T12:39:37;0.60;;;0.60;;
26686;SDS011;14298;50.900;4.648;2023-07-22T12:42:05;0.57;;;0.57;;
26686;SDS011;14298;50.900;4.648;2023-07-22T12:44:33;0.47;;;0.47;;
26686;SDS011;14298;50.900;4.648;2023-07-22T12:47:01;0.43;;;0.43;;
26686;SDS011;14298;50.900;4.648;2023-07-22T12:49:29;1.70;;;0.97;;
26686;SDS011;14298;50.900;4.648;2023-07-22T12:51:57;1.43;;;0.63;;
26686;SDS011;14298;50.900;4.648;2023-07-22T12:54:26;0.73;;;0.67;;
26686;SDS011;14298;50.900;4.648;2023-07-22T12:56:54;1.80;;;1.00;;
26686;SDS011;14298;50.900;4.648;2023-07-22T12:59:22;2.30;;;0.63;;
26686;SDS011;14298;50.900;4.648;2023-07-22T13:01:50;0.30;;;0.30;;
26686;SDS011;14298;50.900;4.648;2023-07-22T13:04:18;0.83;;;0.33;;
26686;SDS011;14298;50.900;4.648;2023-07-22T13:06:46;0.40;;;0.40;;
26686;SDS011;14298;50.900;4.648;2023-07-22T13:09:14;0.50;;;0.50;;
26686;SDS011;14298;50.900;4.648;2023-07-22T13:11:42;0.97;;;0.60;;
26686;SDS011;14298;50.900;4.648;2023-07-22T13:14:10;1.27;;;1.03;;
26686;SDS011;14298;50.900;4.648;2023-07-22T13:16:38;1.00;;;0.40;;
26686;SDS011;14298;50.900;4.648;2023-07-22T13:19:06;0.77;;;0.47;;
26686;SDS011;14298;50.900;4.648;2023-07-22T13:21:34;0.80;;;0.80;;
26686;SDS011;14298;50.900;4.648;2023-07-22T13:24:02;0.67;;;0.50;;
26686;SDS011;14298;50.900;4.648;2023-07-22T13:26:30;1.10;;;0.60;;
26686;SDS011;14298;50.900;4.648;2023-07-22T13:29:00;0.40;;;0.40;;
26686;SDS011;14298;50.900;4.648;2023-07-22T13:31:28;0.57;;;0.40;;
26686;SDS011;14298;50.900;4.648;2023-07-22T13:33:56;0.20;;;0.20;;
26686;SDS011;14298;50.900;4.648;2023-07-22T13:36:24;1.17;;;0.70;;
26686;SDS011;14298;50.900;4.648;2023-07-22T13:38:52;0.20;;;0.20;;
26686;SDS011;14298;50.900;4.648;2023-07-22T13:41:20;0.53;;;0.53;;
26686;SDS011;14298;50.900;4.648;2023-07-22T13:43:48;0.37;;;0.37;;
26686;SDS011;14298;50.900;4.648;2023-07-22T13:46:16;0.10;;;0.10;;
26686;SDS011;14298;50.900;4.648;2023-07-22T13:48:44;0.43;;;0.33;;
26686;SDS011;14298;50.900;4.648;2023-07-22T13:51:12;1.27;;;0.80;;
26686;SDS011;14298;50.900;4.648;2023-07-22T13:53:40;0.40;;;0.40;;
26686;SDS011;14298;50.900;4.648;2023-07-22T13:56:08;0.60;;;0.60;;
26686;SDS011;14298;50.900;4.648;2023-07-22T13:58:37;0.93;;;0.50;;
26686;SDS011;14298;50.900;4.648;2023-07-22T14:01:05;0.77;;;0.60;;
26686;SDS011;14298;50.900;4.648;2023-07-22T14:03:33;0.33;;;0.33;;
26686;SDS011;14298;50.900;4.648;2023-07-22T14:06:01;0.77;;;0.77;;
26686;SDS011;14298;50.900;4.648;2023-07-22T14:08:30;0.30;;;0.30;;
26686;SDS011;14298;50.900;4.648;2023-07-22T14:10:58;0.37;;;0.37;;
26686;SDS011;14298;50.900;4.648;2023-07-22T14:13:26;0.43;;;0.33;;
26686;SDS011;14298;50.900;4.648;2023-07-22T14:15:54;1.33;;;0.97;;
26686;SDS011;14298;50.900;4.648;2023-07-22T14:18:21;1.17;;;0.70;;
26686;SDS011;14298;50.900;4.648;2023-07-22T14:20:49;0.87;;;0.60;;
26686;SDS011;14298;50.900;4.648;2023-07-22T14:23:17;0.27;;;0.27;;
26686;SDS011;14298;50.900;4.648;2023-07-22T14:25:45;0.20;;;0.20;;
26686;SDS011;14298;50.900;4.648;2023-07-22T14:28:14;0.63;;;0.53;;
26686;SDS011;14298;50.900;4.648;2023-07-22T14:30:42;1.07;;;0.87;;
26686;SDS011;14298;50.900;4.648;2023-07-22T14:33:10;2.47;;;0.77;;
26686;SDS011;14298;50.900;4.648;2023-07-22T14:35:38;0.40;;;0.40;;
26686;SDS011;14298;50.900;4.648;2023-07-22T14:38:05;0.37;;;0.37;;
26686;SDS011;14298;50.900;4.648;2023-07-22T14:40:33;1.20;;;0.63;;
26686;SDS011;14298;50.900;4.648;2023-07-22T14:43:01;1.80;;;0.30;;
26686;SDS011;14298;50.900;4.648;2023-07-22T14:45:29;0.77;;;0.77;;
26686;SDS011;14298;50.900;4.648;2023-07-22T14:47:57;2.00;;;1.03;;
26686;SDS011;14298;50.900;4.648;2023-07-22T14:50:26;0.43;;;0.43;;
26686;SDS011;14298;50.900;4.648;2023-07-22T14:52:54;1.07;;;0.40;;
26686;SDS011;14298;50.900;4.648;2023-07-22T14:55:22;0.70;;;0.40;;
26686;SDS011;14298;50.900;4.648;2023-07-22T14:57:50;0.87;;;0.63;;